sensor_id;sensor_type;location;lat;lon;timestamp;P1;durP1;ratioP1;P2;durP2;ratioP2
31638;SDS011;18248;51.522;7.020;2023-02-18T00:02:03;40.97;;;26.20;;
31638;SDS011;18248;51.522;7.020;2023-02-18T00:05:02;39.60;;;25.83;;
31638;SDS011;18248;51.522;7.020;2023-02-18T00:08:03;34.28;;;24.65;;
31638;SDS011;18248;51.522;7.020;2023-02-18T00:11:03;42.17;;;26.90;;
31638;SDS011;18248;51.522;7.020;2023-02-18T00:14:05;33.20;;;23.30;;
31638;SDS011;18248;51.522;7.020;2023-02-18T00:17:07;33.38;;;22.30;;
31638;SDS011;18248;51.522;7.020;2023-02-18T00:20:06;32.63;;;23.02;;
31638;SDS011;18248;51.522;7.020;2023-02-18T00:23:05;35.58;;;23.63;;
31638;SDS011;18248;51.522;7.020;2023-02-18T00:26:05;38.97;;;24.30;;
31638;SDS011;18248;51.522;7.020;2023-02-18T00:29:05;32.88;;;23.30;;
31638;SDS011;18248;51.522;7.020;2023-02-18T00:32:04;31.10;;;21.92;;
31638;SDS011;18248;51.522;7.020;2023-02-18T00:35:03;36.58;;;22.70;;
31638;SDS011;18248;51.522;7.020;2023-02-18T00:38:02;32.42;;;22.42;;
31638;SDS011;18248;51.522;7.020;2023-02-18T00:41:01;33.30;;;23.52;;
31638;SDS011;18248;51.522;7.020;2023-02-18T00:44:00;34.72;;;22.88;;
31638;SDS011;18248;51.522;7.020;2023-02-18T00:46:59;36.00;;;23.58;;
31638;SDS011;18248;51.522;7.020;2023-02-18T00:49:58;31.00;;;21.67;;
31638;SDS011;18248;51.522;7.020;2023-02-18T00:52:58;39.00;;;23.48;;
31638;SDS011;18248;51.522;7.020;2023-02-18T00:55:56;36.38;;;23.40;;
31638;SDS011;18248;51.522;7.020;2023-02-18T00:58:55;35.60;;;24.00;;
31638;SDS011;18248;51.522;7.020;2023-02-18T01:01:54;37.80;;;22.58;;
31638;SDS011;18248;51.522;7.020;2023-02-18T01:04:52;39.83;;;23.60;;
31638;SDS011;18248;51.522;7.020;2023-02-18T01:07:51;37.22;;;23.65;;
31638;SDS011;18248;51.522;7.020;2023-02-18T01:10:54;42.83;;;26.65;;
31638;SDS011;18248;51.522;7.020;2023-02-18T01:13:54;38.95;;;24.42;;
31638;SDS011;18248;51.522;7.020;2023-02-18T01:16:53;41.00;;;24.92;;
31638;SDS011;18248;51.522;7.020;2023-02-18T01:19:52;41.80;;;25.70;;
31638;SDS011;18248;51.522;7.020;2023-02-18T01:22:50;46.70;;;26.33;;
31638;SDS011;18248;51.522;7.020;2023-02-18T01:25:49;41.28;;;26.75;;
31638;SDS011;18248;51.522;7.020;2023-02-18T01:28:48;36.85;;;24.83;;
31638;SDS011;18248;51.522;7.020;2023-02-18T01:31:46;41.38;;;25.40;;
31638;SDS011;18248;51.522;7.020;2023-02-18T01:34:45;38.30;;;24.35;;
31638;SDS011;18248;51.522;7.020;2023-02-18T01:37:43;43.42;;;27.15;;
31638;SDS011;18248;51.522;7.020;2023-02-18T01:40:47;48.20;;;27.88;;
31638;SDS011;18248;51.522;7.020;2023-02-18T01:47:07;46.53;;;27.13;;
31638;SDS011;18248;51.522;7.020;2023-02-18T01:50:06;45.05;;;27.30;;
31638;SDS011;18248;51.522;7.020;2023-02-18T01:53:05;45.00;;;26.30;;
31638;SDS011;18248;51.522;7.020;2023-02-18T01:56:05;46.72;;;27.08;;
31638;SDS011;18248;51.522;7.020;2023-02-18T01:59:09;45.07;;;26.77;;
31638;SDS011;18248;51.522;7.020;2023-02-18T02:02:11;42.00;;;24.38;;
31638;SDS011;18248;51.522;7.020;2023-02-18T02:05:12;39.53;;;25.13;;
31638;SDS011;18248;51.522;7.020;2023-02-18T02:08:11;40.95;;;25.25;;
31638;SDS011;18248;51.522;7.020;2023-02-18T02:17:57;34.88;;;21.63;;
31638;SDS011;18248;51.522;7.020;2023-02-18T02:38:11;29.98;;;17.80;;
31638;SDS011;18248;51.522;7.020;2023-02-18T02:45:08;22.55;;;16.02;;
31638;SDS011;18248;51.522;7.020;2023-02-18T02:51:24;25.13;;;16.75;;
31638;SDS011;18248;51.522;7.020;2023-02-18T02:54:27;22.23;;;15.25;;
31638;SDS011;18248;51.522;7.020;2023-02-18T03:01:08;24.40;;;15.77;;
31638;SDS011;18248;51.522;7.020;2023-02-18T03:06:56;28.92;;;17.33;;
31638;SDS011;18248;51.522;7.020;2023-02-18T03:10:06;31.60;;;18.20;;
31638;SDS011;18248;51.522;7.020;2023-02-18T03:16:33;35.72;;;21.50;;
31638;SDS011;18248;51.522;7.020;2023-02-18T03:23:10;39.40;;;24.20;;
31638;SDS011;18248;51.522;7.020;2023-02-18T03:26:14;41.50;;;26.35;;
31638;SDS011;18248;51.522;7.020;2023-02-18T03:29:17;45.92;;;27.55;;
31638;SDS011;18248;51.522;7.020;2023-02-18T03:32:17;48.60;;;27.23;;
31638;SDS011;18248;51.522;7.020;2023-02-18T03:35:19;39.33;;;24.83;;
31638;SDS011;18248;51.522;7.020;2023-02-18T03:38:23;36.70;;;23.20;;
31638;SDS011;18248;51.522;7.020;2023-02-18T03:41:26;37.38;;;23.67;;
31638;SDS011;18248;51.522;7.020;2023-02-18T03:44:25;37.95;;;23.85;;
31638;SDS011;18248;51.522;7.020;2023-02-18T03:47:24;38.00;;;23.45;;
31638;SDS011;18248;51.522;7.020;2023-02-18T03:50:22;39.40;;;23.70;;
31638;SDS011;18248;51.522;7.020;2023-02-18T03:53:21;34.97;;;23.42;;
31638;SDS011;18248;51.522;7.020;2023-02-18T03:56:20;41.38;;;23.98;;
31638;SDS011;18248;51.522;7.020;2023-02-18T03:59:19;39.47;;;24.38;;
31638;SDS011;18248;51.522;7.020;2023-02-18T04:02:17;38.22;;;23.52;;
31638;SDS011;18248;51.522;7.020;2023-02-18T04:05:16;37.30;;;23.98;;
31638;SDS011;18248;51.522;7.020;2023-02-18T04:08:14;46.70;;;26.33;;
31638;SDS011;18248;51.522;7.020;2023-02-18T04:11:13;38.17;;;24.52;;
31638;SDS011;18248;51.522;7.020;2023-02-18T04:14:12;40.97;;;24.80;;
31638;SDS011;18248;51.522;7.020;2023-02-18T04:17:11;36.00;;;24.08;;
31638;SDS011;18248;51.522;7.020;2023-02-18T04:20:10;36.30;;;23.58;;
31638;SDS011;18248;51.522;7.020;2023-02-18T04:23:09;35.90;;;24.50;;
31638;SDS011;18248;51.522;7.020;2023-02-18T04:26:07;40.00;;;24.52;;
31638;SDS011;18248;51.522;7.020;2023-02-18T04:29:06;34.78;;;24.17;;
31638;SDS011;18248;51.522;7.020;2023-02-18T04:32:05;42.20;;;27.83;;
31638;SDS011;18248;51.522;7.020;2023-02-18T04:35:03;44.88;;;30.05;;
31638;SDS011;18248;51.522;7.020;2023-02-18T04:38:02;49.10;;;33.28;;
31638;SDS011;18248;51.522;7.020;2023-02-18T04:41:01;46.70;;;32.97;;
31638;SDS011;18248;51.522;7.020;2023-02-18T04:43:59;45.45;;;30.92;;
31638;SDS011;18248;51.522;7.020;2023-02-18T04:46:58;49.95;;;32.45;;
31638;SDS011;18248;51.522;7.020;2023-02-18T04:49:56;45.28;;;29.90;;
31638;SDS011;18248;51.522;7.020;2023-02-18T04:52:56;42.63;;;27.83;;
31638;SDS011;18248;51.522;7.020;2023-02-18T04:55:55;45.05;;;26.30;;
31638;SDS011;18248;51.522;7.020;2023-02-18T04:58:53;36.92;;;23.13;;
31638;SDS011;18248;51.522;7.020;2023-02-18T05:01:52;36.05;;;23.85;;
31638;SDS011;18248;51.522;7.020;2023-02-18T05:04:50;34.15;;;22.40;;
31638;SDS011;18248;51.522;7.020;2023-02-18T05:07:49;40.40;;;25.00;;
31638;SDS011;18248;51.522;7.020;2023-02-18T05:10:48;34.58;;;21.75;;
31638;SDS011;18248;51.522;7.020;2023-02-18T05:13:46;29.45;;;19.85;;
31638;SDS011;18248;51.522;7.020;2023-02-18T05:16:45;29.88;;;17.20;;
31638;SDS011;18248;51.522;7.020;2023-02-18T05:19:44;27.08;;;17.08;;
31638;SDS011;18248;51.522;7.020;2023-02-18T05:22:42;24.52;;;16.33;;
31638;SDS011;18248;51.522;7.020;2023-02-18T05:25:41;23.55;;;14.85;;
31638;SDS011;18248;51.522;7.020;2023-02-18T05:28:39;21.10;;;14.73;;
31638;SDS011;18248;51.522;7.020;2023-02-18T05:31:38;24.92;;;16.10;;
31638;SDS011;18248;51.522;7.020;2023-02-18T05:34:36;21.42;;;14.38;;
31638;SDS011;18248;51.522;7.020;2023-02-18T05:37:35;17.60;;;13.32;;
31638;SDS011;18248;51.522;7.020;2023-02-18T05:40:34;18.45;;;12.88;;
31638;SDS011;18248;51.522;7.020;2023-02-18T05:43:33;17.85;;;12.40;;
31638;SDS011;18248;51.522;7.020;2023-02-18T05:46:51;16.63;;;12.70;;
31638;SDS011;18248;51.522;7.020;2023-02-18T05:49:50;17.85;;;11.98;;
31638;SDS011;18248;51.522;7.020;2023-02-18T05:52:48;17.00;;;12.20;;
31638;SDS011;18248;51.522;7.020;2023-02-18T05:55:47;16.35;;;12.02;;
31638;SDS011;18248;51.522;7.020;2023-02-18T05:58:46;17.00;;;13.90;;
31638;SDS011;18248;51.522;7.020;2023-02-18T06:01:44;15.77;;;11.85;;
31638;SDS011;18248;51.522;7.020;2023-02-18T06:04:43;13.70;;;10.40;;
31638;SDS011;18248;51.522;7.020;2023-02-18T06:07:42;11.90;;;9.23;;
31638;SDS011;18248;51.522;7.020;2023-02-18T06:10:40;13.32;;;10.35;;
31638;SDS011;18248;51.522;7.020;2023-02-18T06:13:39;12.43;;;9.35;;
31638;SDS011;18248;51.522;7.020;2023-02-18T06:16:38;12.65;;;9.32;;
31638;SDS011;18248;51.522;7.020;2023-02-18T06:19:36;13.82;;;9.57;;
31638;SDS011;18248;51.522;7.020;2023-02-18T06:22:35;16.70;;;10.60;;
31638;SDS011;18248;51.522;7.020;2023-02-18T06:25:33;17.42;;;10.18;;
31638;SDS011;18248;51.522;7.020;2023-02-18T06:28:32;14.70;;;10.60;;
31638;SDS011;18248;51.522;7.020;2023-02-18T06:31:31;13.30;;;10.18;;
31638;SDS011;18248;51.522;7.020;2023-02-18T06:34:29;14.18;;;10.80;;
31638;SDS011;18248;51.522;7.020;2023-02-18T06:37:28;17.05;;;11.13;;
31638;SDS011;18248;51.522;7.020;2023-02-18T06:40:26;12.25;;;9.75;;
31638;SDS011;18248;51.522;7.020;2023-02-18T06:43:25;13.20;;;9.65;;
31638;SDS011;18248;51.522;7.020;2023-02-18T06:46:24;13.30;;;9.05;;
31638;SDS011;18248;51.522;7.020;2023-02-18T06:49:24;11.25;;;8.10;;
31638;SDS011;18248;51.522;7.020;2023-02-18T06:52:23;12.68;;;9.23;;
31638;SDS011;18248;51.522;7.020;2023-02-18T06:55:21;12.80;;;8.68;;
31638;SDS011;18248;51.522;7.020;2023-02-18T06:58:20;9.70;;;8.10;;
31638;SDS011;18248;51.522;7.020;2023-02-18T07:01:20;10.98;;;8.13;;
31638;SDS011;18248;51.522;7.020;2023-02-18T07:04:18;11.65;;;7.15;;
31638;SDS011;18248;51.522;7.020;2023-02-18T07:07:17;11.80;;;7.55;;
31638;SDS011;18248;51.522;7.020;2023-02-18T07:10:15;12.43;;;8.02;;
31638;SDS011;18248;51.522;7.020;2023-02-18T07:13:14;12.02;;;8.15;;
31638;SDS011;18248;51.522;7.020;2023-02-18T07:16:20;13.13;;;8.23;;
31638;SDS011;18248;51.522;7.020;2023-02-18T07:19:19;11.80;;;8.02;;
31638;SDS011;18248;51.522;7.020;2023-02-18T07:22:17;11.85;;;7.53;;
31638;SDS011;18248;51.522;7.020;2023-02-18T07:25:16;12.10;;;7.05;;
31638;SDS011;18248;51.522;7.020;2023-02-18T07:28:14;15.80;;;7.28;;
31638;SDS011;18248;51.522;7.020;2023-02-18T07:31:14;10.10;;;5.88;;
31638;SDS011;18248;51.522;7.020;2023-02-18T07:34:14;14.00;;;5.75;;
31638;SDS011;18248;51.522;7.020;2023-02-18T07:37:13;8.93;;;4.63;;
31638;SDS011;18248;51.522;7.020;2023-02-18T07:40:12;8.68;;;3.90;;
31638;SDS011;18248;51.522;7.020;2023-02-18T07:43:12;5.82;;;3.47;;
31638;SDS011;18248;51.522;7.020;2023-02-18T07:46:11;5.97;;;3.30;;
31638;SDS011;18248;51.522;7.020;2023-02-18T07:49:09;6.93;;;4.00;;
31638;SDS011;18248;51.522;7.020;2023-02-18T07:52:08;8.32;;;3.47;;
31638;SDS011;18248;51.522;7.020;2023-02-18T07:55:07;6.95;;;3.25;;
31638;SDS011;18248;51.522;7.020;2023-02-18T07:58:06;4.45;;;3.20;;
31638;SDS011;18248;51.522;7.020;2023-02-18T08:01:05;5.03;;;2.78;;
31638;SDS011;18248;51.522;7.020;2023-02-18T08:04:05;5.80;;;3.20;;
31638;SDS011;18248;51.522;7.020;2023-02-18T08:07:04;4.95;;;2.67;;
31638;SDS011;18248;51.522;7.020;2023-02-18T08:10:03;5.35;;;2.88;;
31638;SDS011;18248;51.522;7.020;2023-02-18T08:13:02;5.25;;;3.20;;
31638;SDS011;18248;51.522;7.020;2023-02-18T08:16:01;4.43;;;3.08;;
31638;SDS011;18248;51.522;7.020;2023-02-18T08:19:00;6.45;;;2.53;;
31638;SDS011;18248;51.522;7.020;2023-02-18T08:22:00;4.78;;;2.70;;
31638;SDS011;18248;51.522;7.020;2023-02-18T08:25:00;5.40;;;3.28;;
31638;SDS011;18248;51.522;7.020;2023-02-18T08:27:58;4.75;;;3.08;;
31638;SDS011;18248;51.522;7.020;2023-02-18T08:30:57;9.45;;;3.88;;
31638;SDS011;18248;51.522;7.020;2023-02-18T08:33:56;5.07;;;3.25;;
31638;SDS011;18248;51.522;7.020;2023-02-18T08:36:56;5.57;;;3.00;;
31638;SDS011;18248;51.522;7.020;2023-02-18T08:39:54;6.85;;;3.42;;
31638;SDS011;18248;51.522;7.020;2023-02-18T08:42:53;5.28;;;3.22;;
31638;SDS011;18248;51.522;7.020;2023-02-18T08:45:53;4.68;;;2.50;;
31638;SDS011;18248;51.522;7.020;2023-02-18T10:09:58;13.82;;;4.32;;
31638;SDS011;18248;51.522;7.020;2023-02-18T10:13:00;20.10;;;4.38;;
31638;SDS011;18248;51.522;7.020;2023-02-18T10:16:00;18.50;;;4.75;;
31638;SDS011;18248;51.522;7.020;2023-02-18T10:19:03;19.40;;;4.70;;
31638;SDS011;18248;51.522;7.020;2023-02-18T10:22:23;23.02;;;4.63;;
31638;SDS011;18248;51.522;7.020;2023-02-18T10:25:23;19.73;;;4.57;;
31638;SDS011;18248;51.522;7.020;2023-02-18T10:28:22;24.95;;;4.25;;
31638;SDS011;18248;51.522;7.020;2023-02-18T10:31:33;19.75;;;4.25;;
31638;SDS011;18248;51.522;7.020;2023-02-18T10:34:47;20.52;;;3.78;;
31638;SDS011;18248;51.522;7.020;2023-02-18T10:37:56;18.42;;;4.07;;
31638;SDS011;18248;51.522;7.020;2023-02-18T10:41:20;23.27;;;4.68;;
31638;SDS011;18248;51.522;7.020;2023-02-18T10:51:05;23.92;;;5.43;;
31638;SDS011;18248;51.522;7.020;2023-02-18T10:54:14;23.92;;;5.30;;
31638;SDS011;18248;51.522;7.020;2023-02-18T10:57:16;24.63;;;5.25;;
31638;SDS011;18248;51.522;7.020;2023-02-18T11:00:17;18.52;;;4.60;;
31638;SDS011;18248;51.522;7.020;2023-02-18T11:03:37;19.83;;;4.78;;
31638;SDS011;18248;51.522;7.020;2023-02-18T11:06:41;23.00;;;4.90;;
31638;SDS011;18248;51.522;7.020;2023-02-18T11:10:17;18.27;;;5.30;;
31638;SDS011;18248;51.522;7.020;2023-02-18T11:13:17;19.38;;;4.57;;
31638;SDS011;18248;51.522;7.020;2023-02-18T11:16:36;15.07;;;4.97;;
31638;SDS011;18248;51.522;7.020;2023-02-18T11:20:31;23.80;;;5.93;;
31638;SDS011;18248;51.522;7.020;2023-02-18T11:23:22;25.15;;;6.13;;
31638;SDS011;18248;51.522;7.020;2023-02-18T11:26:26;15.80;;;6.00;;
31638;SDS011;18248;51.522;7.020;2023-02-18T11:29:29;28.08;;;5.82;;
31638;SDS011;18248;51.522;7.020;2023-02-18T11:32:30;19.80;;;5.25;;
31638;SDS011;18248;51.522;7.020;2023-02-18T11:35:32;21.50;;;5.85;;
31638;SDS011;18248;51.522;7.020;2023-02-18T11:38:35;20.67;;;5.93;;
31638;SDS011;18248;51.522;7.020;2023-02-18T11:41:46;21.52;;;5.90;;
31638;SDS011;18248;51.522;7.020;2023-02-18T11:44:56;21.13;;;6.90;;
31638;SDS011;18248;51.522;7.020;2023-02-18T11:50:59;31.48;;;8.15;;
31638;SDS011;18248;51.522;7.020;2023-02-18T11:54:00;19.63;;;5.88;;
31638;SDS011;18248;51.522;7.020;2023-02-18T11:57:06;17.40;;;6.68;;
31638;SDS011;18248;51.522;7.020;2023-02-18T12:00:21;19.85;;;6.50;;
31638;SDS011;18248;51.522;7.020;2023-02-18T12:03:43;17.92;;;6.57;;
31638;SDS011;18248;51.522;7.020;2023-02-18T12:10:38;15.40;;;5.47;;
31638;SDS011;18248;51.522;7.020;2023-02-18T12:13:42;12.30;;;4.95;;
31638;SDS011;18248;51.522;7.020;2023-02-18T12:16:56;13.05;;;5.38;;
31638;SDS011;18248;51.522;7.020;2023-02-18T12:23:37;14.67;;;6.13;;
31638;SDS011;18248;51.522;7.020;2023-02-18T12:33:28;10.73;;;5.43;;
31638;SDS011;18248;51.522;7.020;2023-02-18T13:13:10;18.45;;;9.23;;
31638;SDS011;18248;51.522;7.020;2023-02-18T13:16:15;16.52;;;9.73;;
31638;SDS011;18248;51.522;7.020;2023-02-18T13:19:18;14.68;;;8.43;;
31638;SDS011;18248;51.522;7.020;2023-02-18T13:22:24;15.48;;;7.72;;
31638;SDS011;18248;51.522;7.020;2023-02-18T13:25:25;10.98;;;6.40;;
31638;SDS011;18248;51.522;7.020;2023-02-18T13:34:56;13.65;;;6.85;;
31638;SDS011;18248;51.522;7.020;2023-02-18T13:41:39;9.55;;;6.22;;
31638;SDS011;18248;51.522;7.020;2023-02-18T13:44:39;13.02;;;7.28;;
31638;SDS011;18248;51.522;7.020;2023-02-18T13:47:53;12.23;;;7.68;;
31638;SDS011;18248;51.522;7.020;2023-02-18T13:50:53;15.32;;;8.48;;
31638;SDS011;18248;51.522;7.020;2023-02-18T13:54:00;16.95;;;9.27;;
31638;SDS011;18248;51.522;7.020;2023-02-18T13:57:01;26.45;;;9.10;;
31638;SDS011;18248;51.522;7.020;2023-02-18T14:00:04;14.47;;;10.40;;
31638;SDS011;18248;51.522;7.020;2023-02-18T14:06:31;24.27;;;14.27;;
31638;SDS011;18248;51.522;7.020;2023-02-18T14:09:35;28.48;;;16.17;;
31638;SDS011;18248;51.522;7.020;2023-02-18T14:12:40;29.05;;;15.20;;
31638;SDS011;18248;51.522;7.020;2023-02-18T14:15:56;23.10;;;13.05;;
31638;SDS011;18248;51.522;7.020;2023-02-18T14:18:58;29.05;;;15.57;;
31638;SDS011;18248;51.522;7.020;2023-02-18T14:25:33;25.00;;;13.13;;
31638;SDS011;18248;51.522;7.020;2023-02-18T14:34:49;27.90;;;14.20;;
31638;SDS011;18248;51.522;7.020;2023-02-18T14:48:06;28.48;;;15.68;;
31638;SDS011;18248;51.522;7.020;2023-02-18T14:51:28;31.65;;;14.88;;
31638;SDS011;18248;51.522;7.020;2023-02-18T14:54:30;27.73;;;14.63;;
31638;SDS011;18248;51.522;7.020;2023-02-18T14:57:49;33.67;;;16.77;;
31638;SDS011;18248;51.522;7.020;2023-02-18T15:01:04;38.47;;;18.95;;
31638;SDS011;18248;51.522;7.020;2023-02-18T15:04:04;38.50;;;19.13;;
31638;SDS011;18248;51.522;7.020;2023-02-18T15:07:03;36.25;;;17.95;;
31638;SDS011;18248;51.522;7.020;2023-02-18T15:10:12;28.30;;;16.13;;
31638;SDS011;18248;51.522;7.020;2023-02-18T15:16:41;32.10;;;16.63;;
31638;SDS011;18248;51.522;7.020;2023-02-18T15:19:48;33.05;;;17.02;;
31638;SDS011;18248;51.522;7.020;2023-02-18T15:22:57;30.85;;;16.88;;
31638;SDS011;18248;51.522;7.020;2023-02-18T15:25:57;33.55;;;18.35;;
31638;SDS011;18248;51.522;7.020;2023-02-18T15:29:04;29.95;;;17.45;;
31638;SDS011;18248;51.522;7.020;2023-02-18T15:35:31;33.40;;;19.17;;
31638;SDS011;18248;51.522;7.020;2023-02-18T15:38:30;28.00;;;18.10;;
31638;SDS011;18248;51.522;7.020;2023-02-18T15:41:29;31.15;;;19.63;;
31638;SDS011;18248;51.522;7.020;2023-02-18T15:44:29;31.55;;;17.83;;
31638;SDS011;18248;51.522;7.020;2023-02-18T15:47:31;42.67;;;20.38;;
31638;SDS011;18248;51.522;7.020;2023-02-18T15:53:31;43.78;;;22.17;;
31638;SDS011;18248;51.522;7.020;2023-02-18T15:56:38;40.03;;;21.38;;
31638;SDS011;18248;51.522;7.020;2023-02-18T15:59:59;32.72;;;19.90;;
31638;SDS011;18248;51.522;7.020;2023-02-18T16:03:03;33.25;;;18.02;;
31638;SDS011;18248;51.522;7.020;2023-02-18T16:06:17;40.08;;;20.40;;
31638;SDS011;18248;51.522;7.020;2023-02-18T16:09:22;41.05;;;20.08;;
31638;SDS011;18248;51.522;7.020;2023-02-18T16:12:28;35.65;;;19.17;;
31638;SDS011;18248;51.522;7.020;2023-02-18T16:15:30;36.05;;;19.55;;
31638;SDS011;18248;51.522;7.020;2023-02-18T16:18:39;39.08;;;20.27;;
31638;SDS011;18248;51.522;7.020;2023-02-18T16:21:40;37.78;;;19.35;;
31638;SDS011;18248;51.522;7.020;2023-02-18T16:24:41;41.58;;;19.50;;
31638;SDS011;18248;51.522;7.020;2023-02-18T16:30:54;30.95;;;18.15;;
31638;SDS011;18248;51.522;7.020;2023-02-18T16:33:53;35.72;;;18.17;;
31638;SDS011;18248;51.522;7.020;2023-02-18T16:36:52;32.00;;;18.30;;
31638;SDS011;18248;51.522;7.020;2023-02-18T16:43:27;33.80;;;17.92;;
31638;SDS011;18248;51.522;7.020;2023-02-18T16:46:29;25.50;;;16.17;;
31638;SDS011;18248;51.522;7.020;2023-02-18T16:49:28;36.33;;;18.17;;
31638;SDS011;18248;51.522;7.020;2023-02-18T16:52:28;26.92;;;14.00;;
31638;SDS011;18248;51.522;7.020;2023-02-18T16:55:28;29.90;;;16.55;;
31638;SDS011;18248;51.522;7.020;2023-02-18T16:58:28;34.10;;;15.95;;
31638;SDS011;18248;51.522;7.020;2023-02-18T17:01:30;33.92;;;16.20;;
31638;SDS011;18248;51.522;7.020;2023-02-18T17:04:31;35.55;;;16.20;;
31638;SDS011;18248;51.522;7.020;2023-02-18T17:07:30;27.75;;;15.48;;
31638;SDS011;18248;51.522;7.020;2023-02-18T17:10:29;28.13;;;15.40;;
31638;SDS011;18248;51.522;7.020;2023-02-18T17:13:28;34.45;;;14.10;;
31638;SDS011;18248;51.522;7.020;2023-02-18T17:16:28;27.58;;;15.50;;
31638;SDS011;18248;51.522;7.020;2023-02-18T17:19:27;28.55;;;15.32;;
31638;SDS011;18248;51.522;7.020;2023-02-18T17:22:25;40.83;;;15.80;;
31638;SDS011;18248;51.522;7.020;2023-02-18T17:25:27;29.45;;;14.35;;
31638;SDS011;18248;51.522;7.020;2023-02-18T17:28:37;33.38;;;15.27;;
31638;SDS011;18248;51.522;7.020;2023-02-18T17:31:37;29.85;;;14.65;;
31638;SDS011;18248;51.522;7.020;2023-02-18T17:34:38;29.53;;;15.03;;
31638;SDS011;18248;51.522;7.020;2023-02-18T17:37:37;36.03;;;16.35;;
31638;SDS011;18248;51.522;7.020;2023-02-18T17:40:36;35.28;;;16.95;;
31638;SDS011;18248;51.522;7.020;2023-02-18T17:43:35;33.28;;;17.48;;
31638;SDS011;18248;51.522;7.020;2023-02-18T17:46:35;32.83;;;15.43;;
31638;SDS011;18248;51.522;7.020;2023-02-18T17:49:33;30.67;;;15.13;;
31638;SDS011;18248;51.522;7.020;2023-02-18T17:52:32;27.83;;;15.05;;
31638;SDS011;18248;51.522;7.020;2023-02-18T17:55:31;33.47;;;16.05;;
31638;SDS011;18248;51.522;7.020;2023-02-18T17:58:32;36.22;;;16.92;;
31638;SDS011;18248;51.522;7.020;2023-02-18T18:01:30;44.47;;;17.77;;
31638;SDS011;18248;51.522;7.020;2023-02-18T18:04:29;31.40;;;18.65;;
31638;SDS011;18248;51.522;7.020;2023-02-18T18:07:28;35.80;;;19.77;;
31638;SDS011;18248;51.522;7.020;2023-02-18T18:10:27;32.88;;;19.52;;
31638;SDS011;18248;51.522;7.020;2023-02-18T18:13:29;35.15;;;19.20;;
31638;SDS011;18248;51.522;7.020;2023-02-18T18:16:31;36.50;;;18.80;;
31638;SDS011;18248;51.522;7.020;2023-02-18T18:19:30;36.40;;;18.80;;
31638;SDS011;18248;51.522;7.020;2023-02-18T18:22:30;29.02;;;17.77;;
31638;SDS011;18248;51.522;7.020;2023-02-18T18:28:35;20.15;;;13.07;;
31638;SDS011;18248;51.522;7.020;2023-02-18T18:31:33;22.65;;;14.20;;
31638;SDS011;18248;51.522;7.020;2023-02-18T18:34:34;24.35;;;17.23;;
31638;SDS011;18248;51.522;7.020;2023-02-18T18:37:32;22.42;;;15.68;;
31638;SDS011;18248;51.522;7.020;2023-02-18T18:40:31;32.10;;;20.15;;
31638;SDS011;18248;51.522;7.020;2023-02-18T18:43:31;38.95;;;27.15;;
31638;SDS011;18248;51.522;7.020;2023-02-18T18:46:30;37.72;;;27.38;;
31638;SDS011;18248;51.522;7.020;2023-02-18T18:49:28;35.55;;;24.73;;
31638;SDS011;18248;51.522;7.020;2023-02-18T18:52:27;44.78;;;27.95;;
31638;SDS011;18248;51.522;7.020;2023-02-18T18:55:29;35.80;;;23.92;;
31638;SDS011;18248;51.522;7.020;2023-02-18T18:58:33;39.25;;;19.95;;
31638;SDS011;18248;51.522;7.020;2023-02-18T19:01:31;32.25;;;19.15;;
31638;SDS011;18248;51.522;7.020;2023-02-18T19:04:30;28.40;;;17.38;;
31638;SDS011;18248;51.522;7.020;2023-02-18T19:07:29;25.85;;;17.40;;
31638;SDS011;18248;51.522;7.020;2023-02-18T19:10:29;27.13;;;16.55;;
31638;SDS011;18248;51.522;7.020;2023-02-18T19:13:30;31.08;;;17.23;;
31638;SDS011;18248;51.522;7.020;2023-02-18T19:16:33;26.02;;;15.85;;
31638;SDS011;18248;51.522;7.020;2023-02-18T19:19:34;25.30;;;16.25;;
31638;SDS011;18248;51.522;7.020;2023-02-18T19:22:32;29.27;;;19.00;;
31638;SDS011;18248;51.522;7.020;2023-02-18T19:25:31;24.25;;;15.50;;
31638;SDS011;18248;51.522;7.020;2023-02-18T19:28:30;24.85;;;16.35;;
31638;SDS011;18248;51.522;7.020;2023-02-18T19:31:28;26.27;;;18.33;;
31638;SDS011;18248;51.522;7.020;2023-02-18T19:34:27;24.33;;;16.67;;
31638;SDS011;18248;51.522;7.020;2023-02-18T19:37:25;25.95;;;16.98;;
31638;SDS011;18248;51.522;7.020;2023-02-18T19:40:29;23.88;;;17.92;;
31638;SDS011;18248;51.522;7.020;2023-02-18T19:43:27;27.15;;;18.75;;
31638;SDS011;18248;51.522;7.020;2023-02-18T19:46:26;31.85;;;21.02;;
31638;SDS011;18248;51.522;7.020;2023-02-18T19:49:25;34.50;;;20.98;;
31638;SDS011;18248;51.522;7.020;2023-02-18T19:52:24;36.22;;;21.30;;
31638;SDS011;18248;51.522;7.020;2023-02-18T19:55:23;34.38;;;22.13;;
31638;SDS011;18248;51.522;7.020;2023-02-18T19:58:22;32.10;;;20.40;;
31638;SDS011;18248;51.522;7.020;2023-02-18T20:01:20;36.08;;;21.25;;
31638;SDS011;18248;51.522;7.020;2023-02-18T20:04:19;39.35;;;21.67;;
31638;SDS011;18248;51.522;7.020;2023-02-18T20:07:18;32.40;;;19.67;;
31638;SDS011;18248;51.522;7.020;2023-02-18T20:10:18;28.85;;;18.83;;
31638;SDS011;18248;51.522;7.020;2023-02-18T20:13:17;31.65;;;18.67;;
31638;SDS011;18248;51.522;7.020;2023-02-18T20:16:15;56.17;;;30.05;;
31638;SDS011;18248;51.522;7.020;2023-02-18T20:19:14;35.85;;;22.70;;
31638;SDS011;18248;51.522;7.020;2023-02-18T20:22:12;42.50;;;20.77;;
31638;SDS011;18248;51.522;7.020;2023-02-18T20:25:11;36.58;;;19.30;;
31638;SDS011;18248;51.522;7.020;2023-02-18T20:28:10;32.92;;;18.15;;
31638;SDS011;18248;51.522;7.020;2023-02-18T20:31:09;31.63;;;19.17;;
31638;SDS011;18248;51.522;7.020;2023-02-18T20:34:09;33.92;;;18.08;;
31638;SDS011;18248;51.522;7.020;2023-02-18T20:37:07;32.53;;;18.08;;
31638;SDS011;18248;51.522;7.020;2023-02-18T20:40:06;30.35;;;18.13;;
31638;SDS011;18248;51.522;7.020;2023-02-18T20:43:05;37.30;;;18.02;;
31638;SDS011;18248;51.522;7.020;2023-02-18T20:46:04;29.73;;;17.92;;
31638;SDS011;18248;51.522;7.020;2023-02-18T20:49:05;30.58;;;17.45;;
31638;SDS011;18248;51.522;7.020;2023-02-18T20:52:05;30.27;;;18.70;;
31638;SDS011;18248;51.522;7.020;2023-02-18T20:55:05;32.55;;;20.00;;
31638;SDS011;18248;51.522;7.020;2023-02-18T20:58:03;31.27;;;19.50;;
31638;SDS011;18248;51.522;7.020;2023-02-18T21:01:03;30.73;;;19.02;;
31638;SDS011;18248;51.522;7.020;2023-02-18T21:04:04;30.33;;;18.13;;
31638;SDS011;18248;51.522;7.020;2023-02-18T21:07:02;30.42;;;17.88;;
31638;SDS011;18248;51.522;7.020;2023-02-18T21:10:01;34.40;;;20.15;;
31638;SDS011;18248;51.522;7.020;2023-02-18T21:13:01;32.10;;;20.63;;
31638;SDS011;18248;51.522;7.020;2023-02-18T21:16:00;35.92;;;19.75;;
31638;SDS011;18248;51.522;7.020;2023-02-18T21:19:00;30.90;;;20.27;;
31638;SDS011;18248;51.522;7.020;2023-02-18T21:21:59;36.75;;;19.70;;
31638;SDS011;18248;51.522;7.020;2023-02-18T21:24:57;34.25;;;21.30;;
31638;SDS011;18248;51.522;7.020;2023-02-18T21:27:57;35.35;;;20.60;;
31638;SDS011;18248;51.522;7.020;2023-02-18T21:30:55;35.63;;;22.00;;
31638;SDS011;18248;51.522;7.020;2023-02-18T21:33:54;34.75;;;21.00;;
31638;SDS011;18248;51.522;7.020;2023-02-18T21:36:53;40.97;;;23.55;;
31638;SDS011;18248;51.522;7.020;2023-02-18T21:39:51;43.03;;;23.50;;
31638;SDS011;18248;51.522;7.020;2023-02-18T21:42:50;42.13;;;23.98;;
31638;SDS011;18248;51.522;7.020;2023-02-18T21:45:49;41.47;;;25.33;;
31638;SDS011;18248;51.522;7.020;2023-02-18T21:48:47;39.25;;;26.27;;